Time;durP1;ratioP1;P1;durP2;ratioP2;P2;SDS_P1;SDS_P2;PMS_P1;PMS_P2;Temp;Humidity;BMP_temperature;BMP_pressure;BME280_temperature;BME280_humidity;BME280_pressure;Samples;Min_cycle;Max_cycle;Signal;HPM_P1;HPM_P2
2022/03/19 00:00:53;;;;;;;8.80;1.60;;;;;;;;;;5070554;28;20089;-80
2022/03/19 00:03:20;;;;;;;13.15;2.45;;;;;;;;;;5070736;28;20044;-80
2022/03/19 00:05:46;;;;;;;8.20;1.85;;;;;;;;;;5070506;28;20405;-79
2022/03/19 00:08:12;;;;;;;12.05;2.53;;;;;;;;;;5053964;28;20481;-79
2022/03/19 00:10:38;;;;;;;12.55;2.00;;;;;;;;;;5053869;28;20040;-79
2022/03/19 00:13:04;;;;;;;9.73;2.03;;;;;;;;;;5070501;28;20097;-79
2022/03/19 00:15:31;;;;;;;8.60;1.98;;;;;;;;;;5070287;28;20118;-79
2022/03/19 00:17:57;;;;;;;8.68;2.10;;;;;;;;;;5053593;28;20080;-80
2022/03/19 00:20:23;;;;;;;12.48;1.98;;;;;;;;;;5053620;28;20488;-79
2022/03/19 00:22:49;;;;;;;6.55;1.60;;;;;;;;;;5053444;28;20443;-79
2022/03/19 00:25:15;;;;;;;7.05;1.70;;;;;;;;;;5070377;28;20048;-79
2022/03/19 00:27:42;;;;;;;9.65;2.00;;;;;;;;;;5053454;28;20044;-79
2022/03/19 00:30:09;;;;;;;7.95;1.67;;;;;;;;;;5070344;28;20131;-79
2022/03/19 00:32:35;;;;;;;11.52;2.08;;;;;;;;;;5070310;28;20170;-79
2022/03/19 00:35:01;;;;;;;13.23;2.90;;;;;;;;;;5070174;28;20040;-79
2022/03/19 00:37:27;;;;;;;10.38;2.40;;;;;;;;;;5070063;28;20040;-79
2022/03/19 00:39:53;;;;;;;12.18;3.20;;;;;;;;;;5053501;28;20116;-79
2022/03/19 00:42:19;;;;;;;15.27;3.28;;;;;;;;;;5053520;28;20036;-79
2022/03/19 00:44:47;;;;;;;16.65;4.22;;;;;;;;;;5053399;28;20404;-79
2022/03/19 00:47:13;;;;;;;16.27;4.25;;;;;;;;;;5056674;28;20110;-79
2022/03/19 00:49:39;;;;;;;18.75;5.38;;;;;;;;;;5057400;28;20059;-79
2022/03/19 00:52:05;;;;;;;21.58;4.75;;;;;;;;;;5074195;28;20041;-79
2022/03/19 00:54:31;;;;;;;18.60;5.20;;;;;;;;;;5073994;28;20044;-79
2022/03/19 00:56:57;;;;;;;25.38;4.30;;;;;;;;;;5057426;28;20128;-79
2022/03/19 00:59:23;;;;;;;19.52;4.40;;;;;;;;;;5073894;28;20444;-79
2022/03/19 01:01:49;;;;;;;18.23;3.78;;;;;;;;;;5073947;28;20047;-79
2022/03/19 01:04:15;;;;;;;19.98;3.47;;;;;;;;;;5073807;28;20045;-79
2022/03/19 01:06:41;;;;;;;13.05;3.13;;;;;;;;;;5057324;28;20465;-79
2022/03/19 01:09:07;;;;;;;10.27;2.50;;;;;;;;;;5057112;28;20051;-79
2022/03/19 01:11:33;;;;;;;9.23;2.03;;;;;;;;;;5073720;28;20442;-79
2022/03/19 01:13:59;;;;;;;11.73;2.20;;;;;;;;;;5073546;28;20066;-79
2022/03/19 01:16:26;;;;;;;14.98;2.60;;;;;;;;;;5073573;28;20055;-79
2022/03/19 01:18:51;;;;;;;10.18;2.58;;;;;;;;;;5057162;28;20044;-79
2022/03/19 01:21:18;;;;;;;6.60;1.73;;;;;;;;;;5057326;28;20040;-79
2022/03/19 01:23:44;;;;;;;13.55;3.53;;;;;;;;;;5056621;28;20131;-78
2022/03/19 01:26:10;;;;;;;6.85;2.15;;;;;;;;;;5057092;28;20068;-79
2022/03/19 01:28:36;;;;;;;4.95;1.77;;;;;;;;;;5056956;28;20032;-79
2022/03/19 01:31:02;;;;;;;14.30;2.70;;;;;;;;;;5056674;28;20085;-79
2022/03/19 01:33:29;;;;;;;12.02;2.33;;;;;;;;;;5056546;28;20036;-79
2022/03/19 01:35:55;;;;;;;11.75;2.38;;;;;;;;;;5056756;28;20045;-79
2022/03/19 01:38:21;;;;;;;6.13;1.80;;;;;;;;;;5056552;28;20506;-79
2022/03/19 01:40:47;;;;;;;10.88;2.60;;;;;;;;;;5056240;28;20067;-79
2022/03/19 01:43:13;;;;;;;4.70;1.98;;;;;;;;;;5056373;28;20048;-79
2022/03/19 01:45:39;;;;;;;5.85;2.05;;;;;;;;;;5073510;28;20522;-79
2022/03/19 01:48:05;;;;;;;13.02;2.08;;;;;;;;;;5073129;28;20043;-79
2022/03/19 01:50:31;;;;;;;8.10;2.60;;;;;;;;;;5073368;28;20033;-79
2022/03/19 01:52:57;;;;;;;11.23;2.35;;;;;;;;;;5056372;28;20462;-79
2022/03/19 01:55:24;;;;;;;8.93;2.40;;;;;;;;;;5073270;28;20124;-79
2022/03/19 01:57:51;;;;;;;7.22;2.25;;;;;;;;;;5072107;28;20044;-79
2022/03/19 02:00:18;;;;;;;8.38;2.38;;;;;;;;;;5056007;28;20101;-79
2022/03/19 02:02:46;;;;;;;10.60;2.80;;;;;;;;;;5056402;28;20044;-79
2022/03/19 02:05:14;;;;;;;13.63;3.28;;;;;;;;;;5056321;28;20076;-79
2022/03/19 02:07:40;;;;;;;12.90;3.08;;;;;;;;;;5073036;28;20048;-79
2022/03/19 02:10:07;;;;;;;7.05;2.40;;;;;;;;;;5072924;28;20044;-79
2022/03/19 02:12:33;;;;;;;7.75;2.33;;;;;;;;;;5072851;28;20044;-79
2022/03/19 02:14:59;;;;;;;16.83;3.25;;;;;;;;;;5072458;28;20131;-79
2022/03/19 02:17:26;;;;;;;10.02;3.15;;;;;;;;;;5056109;28;20041;-80
2022/03/19 02:19:53;;;;;;;10.45;3.10;;;;;;;;;;5055788;28;20054;-78
2022/03/19 02:22:20;;;;;;;8.07;2.65;;;;;;;;;;5055742;28;20036;-79
2022/03/19 02:27:32;;;;;;;11.25;3.70;;;;;;;;;;5072496;28;20044;-79
2022/03/19 02:29:58;;;;;;;8.60;2.80;;;;;;;;;;5055536;28;20044;-79
2022/03/19 02:32:25;;;;;;;15.85;3.97;;;;;;;;;;5072189;28;20432;-79
2022/03/19 02:34:52;;;;;;;13.93;3.50;;;;;;;;;;5055499;28;20044;-79
2022/03/19 02:37:18;;;;;;;6.82;2.80;;;;;;;;;;5055607;28;20087;-79
2022/03/19 02:39:44;;;;;;;16.02;4.18;;;;;;;;;;5071942;28;20427;-79
2022/03/19 02:42:10;;;;;;;10.50;3.60;;;;;;;;;;5055243;28;20681;-79
2022/03/19 02:44:36;;;;;;;8.13;3.85;;;;;;;;;;5055266;28;20404;-79
2022/03/19 02:47:06;;;;;;;11.10;4.10;;;;;;;;;;5055640;28;20083;-79
2022/03/19 02:49:32;;;;;;;13.48;3.90;;;;;;;;;;5071863;28;20036;-79
2022/03/19 02:51:58;;;;;;;13.70;4.18;;;;;;;;;;5055049;28;20044;-79
2022/03/19 02:54:25;;;;;;;9.85;4.00;;;;;;;;;;5055063;28;20489;-78
2022/03/19 02:56:52;;;;;;;13.48;4.03;;;;;;;;;;5055063;28;20032;-79
2022/03/19 02:59:20;;;;;;;9.20;3.85;;;;;;;;;;5071943;28;20055;-78
2022/03/19 03:01:47;;;;;;;12.88;4.50;;;;;;;;;;5055151;28;20447;-78
2022/03/19 03:04:14;;;;;;;10.88;4.30;;;;;;;;;;5054878;28;20106;-78
2022/03/19 03:06:41;;;;;;;11.88;4.53;;;;;;;;;;5055049;28;20036;-79
2022/03/19 03:09:07;;;;;;;11.55;4.03;;;;;;;;;;5054712;28;20052;-78
2022/03/19 03:11:34;;;;;;;12.43;4.70;;;;;;;;;;5055010;28;20044;-78
2022/03/19 03:14:00;;;;;;;15.00;5.15;;;;;;;;;;5054458;28;20484;-78
2022/03/19 03:16:29;;;;;;;10.15;4.63;;;;;;;;;;5071333;28;20397;-78
2022/03/19 03:18:56;;;;;;;13.70;4.30;;;;;;;;;;5054526;28;20467;-78
2022/03/19 03:21:22;;;;;;;9.23;3.85;;;;;;;;;;5071473;28;20036;-78
2022/03/19 03:23:48;;;;;;;12.23;4.32;;;;;;;;;;5054496;28;20041;-78
2022/03/19 03:26:14;;;;;;;13.45;4.07;;;;;;;;;;5054568;28;20557;-78
2022/03/19 03:28:40;;;;;;;10.57;4.90;;;;;;;;;;5071234;28;20083;-78
2022/03/19 03:31:06;;;;;;;14.60;4.80;;;;;;;;;;5054378;28;20044;-78
2022/03/19 03:33:32;;;;;;;15.98;4.30;;;;;;;;;;5054435;28;20119;-78
2022/03/19 03:35:58;;;;;;;16.88;4.40;;;;;;;;;;5054412;28;20090;-78
2022/03/19 03:38:24;;;;;;;16.20;4.25;;;;;;;;;;5054317;28;20408;-78
2022/03/19 03:40:51;;;;;;;11.48;4.35;;;;;;;;;;5054366;28;20072;-79
2022/03/19 03:43:17;;;;;;;12.23;3.40;;;;;;;;;;5053854;28;20094;-79
2022/03/19 03:45:43;;;;;;;10.70;4.03;;;;;;;;;;5071261;28;20123;-78
2022/03/19 03:48:09;;;;;;;11.35;3.78;;;;;;;;;;5054359;28;20143;-79
2022/03/19 03:50:35;;;;;;;14.77;4.22;;;;;;;;;;5070694;28;20086;-78
2022/03/19 03:53:02;;;;;;;14.73;5.60;;;;;;;;;;5070705;28;20067;-78
2022/03/19 03:55:28;;;;;;;13.60;5.03;;;;;;;;;;5070614;28;20037;-78
2022/03/19 03:57:54;;;;;;;10.45;4.40;;;;;;;;;;5070992;28;20040;-78
2022/03/19 04:00:20;;;;;;;10.05;3.88;;;;;;;;;;5070412;28;20039;-78
2022/03/19 04:02:46;;;;;;;7.18;3.10;;;;;;;;;;5053954;28;20052;-78
2022/03/19 04:05:12;;;;;;;11.93;3.95;;;;;;;;;;5054099;28;20090;-78
2022/03/19 04:07:38;;;;;;;14.48;4.78;;;;;;;;;;5048026;28;20131;-78
2022/03/19 04:10:04;;;;;;;11.35;4.28;;;;;;;;;;5069904;28;20064;-78
2022/03/19 04:12:30;;;;;;;13.98;3.97;;;;;;;;;;5053421;28;20041;-78
2022/03/19 04:14:56;;;;;;;15.10;4.15;;;;;;;;;;5053511;28;20051;-78
2022/03/19 04:17:22;;;;;;;13.55;4.72;;;;;;;;;;5053459;28;20036;-78
2022/03/19 04:19:48;;;;;;;12.25;5.47;;;;;;;;;;5070298;28;20040;-78
2022/03/19 04:22:14;;;;;;;13.73;4.90;;;;;;;;;;5070300;28;20033;-79
2022/03/19 04:24:40;;;;;;;10.70;4.47;;;;;;;;;;5070131;28;20043;-78
2022/03/19 04:27:07;;;;;;;19.73;5.30;;;;;;;;;;5053460;28;20071;-78
2022/03/19 04:29:33;;;;;;;12.93;4.18;;;;;;;;;;5070143;28;20055;-79
2022/03/19 04:32:00;;;;;;;13.52;4.40;;;;;;;;;;5053410;28;20044;-78
2022/03/19 04:34:26;;;;;;;11.27;4.70;;;;;;;;;;5070174;28;20044;-78
2022/03/19 04:36:52;;;;;;;18.25;5.13;;;;;;;;;;5053687;28;20388;-79
2022/03/19 04:39:18;;;;;;;13.57;5.15;;;;;;;;;;5070249;28;20089;-78
2022/03/19 04:41:44;;;;;;;14.93;4.82;;;;;;;;;;5069935;28;20037;-78
2022/03/19 04:44:10;;;;;;;13.35;5.00;;;;;;;;;;5070261;28;20393;-78
2022/03/19 04:46:36;;;;;;;12.68;5.03;;;;;;;;;;5070175;28;20055;-78
2022/03/19 04:49:03;;;;;;;16.80;5.05;;;;;;;;;;5053812;28;20040;-79
2022/03/19 04:51:37;;;;;;;13.85;5.07;;;;;;;;;;5053451;28;20561;-79
2022/03/19 04:54:03;;;;;;;13.15;4.80;;;;;;;;;;5053363;28;20040;-78
2022/03/19 04:56:30;;;;;;;18.45;6.68;;;;;;;;;;5070184;28;20036;-78
2022/03/19 04:58:57;;;;;;;16.23;5.07;;;;;;;;;;5070288;28;20123;-78
2022/03/19 05:01:26;;;;;;;14.38;5.40;;;;;;;;;;5070112;28;20041;-78
2022/03/19 05:03:52;;;;;;;18.00;5.38;;;;;;;;;;5069981;28;20044;-79
2022/03/19 05:06:19;;;;;;;16.55;6.30;;;;;;;;;;5070014;28;20132;-78
2022/03/19 05:08:45;;;;;;;34.05;11.88;;;;;;;;;;5069857;28;20407;-78
2022/03/19 05:11:14;;;;;;;134.27;58.47;;;;;;;;;;5053104;28;20123;-78
2022/03/19 05:13:48;;;;;;;100.22;41.38;;;;;;;;;;5053205;28;20127;-79
2022/03/19 05:16:15;;;;;;;56.50;21.65;;;;;;;;;;5069850;28;20072;-79
2022/03/19 05:18:41;;;;;;;152.52;55.97;;;;;;;;;;5069745;28;20036;-78
2022/03/19 05:21:07;;;;;;;42.25;18.27;;;;;;;;;;5053180;28;20056;-79
2022/03/19 05:23:36;;;;;;;24.70;11.18;;;;;;;;;;5053132;28;20036;-79
2022/03/19 05:26:03;;;;;;;55.03;34.85;;;;;;;;;;5053016;28;20052;-78
2022/03/19 05:28:29;;;;;;;23.70;9.80;;;;;;;;;;5069505;28;20127;-79
2022/03/19 05:30:57;;;;;;;56.20;19.63;;;;;;;;;;5053148;28;20048;-79
2022/03/19 05:36:08;;;;;;;20.33;8.15;;;;;;;;;;5073218;28;20056;-79
2022/03/19 05:38:34;;;;;;;49.08;19.48;;;;;;;;;;5056585;28;20143;-79
2022/03/19 05:41:00;;;;;;;47.17;15.77;;;;;;;;;;5073008;28;20044;-79
2022/03/19 05:43:26;;;;;;;72.85;26.17;;;;;;;;;;5073383;28;20041;-79
2022/03/19 05:45:52;;;;;;;24.52;10.85;;;;;;;;;;5056451;28;20544;-79
2022/03/19 05:48:17;;;;;;;18.08;8.48;;;;;;;;;;5073038;28;20133;-78
2022/03/19 05:50:43;;;;;;;16.15;6.25;;;;;;;;;;5073052;28;20040;-79
2022/03/19 05:53:09;;;;;;;24.38;9.48;;;;;;;;;;5056205;28;20070;-79
2022/03/19 05:55:35;;;;;;;24.10;8.57;;;;;;;;;;5072982;28;20040;-79
2022/03/19 05:58:01;;;;;;;19.60;8.80;;;;;;;;;;5072752;28;20036;-79
2022/03/19 06:00:27;;;;;;;13.60;7.15;;;;;;;;;;5072827;28;20464;-79
2022/03/19 06:02:53;;;;;;;15.73;7.63;;;;;;;;;;5072778;28;20382;-79
2022/03/19 06:05:19;;;;;;;15.70;6.82;;;;;;;;;;5056415;28;20421;-78
2022/03/19 06:07:45;;;;;;;20.70;7.35;;;;;;;;;;5072764;28;20397;-79
2022/03/19 06:10:11;;;;;;;19.77;6.68;;;;;;;;;;5056023;28;20503;-78
2022/03/19 06:12:37;;;;;;;17.67;8.88;;;;;;;;;;5072600;28;20040;-78
2022/03/19 06:15:04;;;;;;;15.88;8.13;;;;;;;;;;5056085;28;20459;-78
2022/03/19 06:17:30;;;;;;;14.90;7.43;;;;;;;;;;5071330;28;20051;-78
2022/03/19 06:19:56;;;;;;;26.38;10.45;;;;;;;;;;5052688;28;20469;-78
2022/03/19 06:22:23;;;;;;;17.30;8.63;;;;;;;;;;5053590;28;20501;-78
2022/03/19 06:24:49;;;;;;;23.23;9.05;;;;;;;;;;5070837;28;20522;-79
2022/03/19 06:27:15;;;;;;;45.75;16.65;;;;;;;;;;5070656;28;20056;-78
2022/03/19 06:29:41;;;;;;;48.47;13.48;;;;;;;;;;5054542;28;20049;-78
2022/03/19 06:32:07;;;;;;;36.28;11.73;;;;;;;;;;5070497;28;20137;-79
2022/03/19 06:34:33;;;;;;;34.08;13.07;;;;;;;;;;5052019;28;20511;-79
2022/03/19 06:39:44;;;;;;;35.75;14.15;;;;;;;;;;5068939;28;20047;-79
2022/03/19 06:42:10;;;;;;;41.65;14.52;;;;;;;;;;5052519;28;20040;-78
2022/03/19 06:44:38;;;;;;;36.42;13.23;;;;;;;;;;5068784;28;20069;-78
2022/03/19 06:47:04;;;;;;;32.00;11.20;;;;;;;;;;5068503;28;20101;-78
2022/03/19 06:49:30;;;;;;;21.77;9.95;;;;;;;;;;5068605;28;20095;-79
2022/03/19 06:51:56;;;;;;;26.60;10.50;;;;;;;;;;5053098;28;20592;-79
2022/03/19 06:54:22;;;;;;;35.92;10.25;;;;;;;;;;5054789;28;20041;-78
2022/03/19 06:56:49;;;;;;;30.42;12.25;;;;;;;;;;5055169;28;20543;-79
2022/03/19 06:59:15;;;;;;;23.33;8.77;;;;;;;;;;5072680;28;20059;-79
2022/03/19 07:01:41;;;;;;;35.47;15.18;;;;;;;;;;5056585;28;20040;-78
2022/03/19 07:04:07;;;;;;;31.42;12.40;;;;;;;;;;5056063;28;20044;-78
2022/03/19 07:06:33;;;;;;;24.02;11.50;;;;;;;;;;5055641;28;20040;-78
2022/03/19 07:08:59;;;;;;;32.90;12.63;;;;;;;;;;5072573;28;20052;-79
2022/03/19 07:11:25;;;;;;;12.80;7.20;;;;;;;;;;5072734;28;20404;-78
2022/03/19 07:13:51;;;;;;;16.23;6.25;;;;;;;;;;5054759;28;20102;-78
2022/03/19 07:16:17;;;;;;;14.45;5.72;;;;;;;;;;5055137;28;20107;-79
2022/03/19 07:18:43;;;;;;;13.98;5.47;;;;;;;;;;5056012;28;20119;-77
2022/03/19 07:21:10;;;;;;;13.65;5.75;;;;;;;;;;5072129;28;20075;-79
2022/03/19 07:23:36;;;;;;;8.48;4.68;;;;;;;;;;5055252;28;20450;-79
2022/03/19 07:26:02;;;;;;;10.88;5.20;;;;;;;;;;5071547;28;20040;-79
2022/03/19 07:28:29;;;;;;;7.32;4.13;;;;;;;;;;5054694;28;20450;-79
2022/03/19 07:30:56;;;;;;;10.55;4.70;;;;;;;;;;5071173;28;20040;-79
2022/03/19 07:33:22;;;;;;;10.63;4.75;;;;;;;;;;5054575;28;20480;-79
2022/03/19 07:35:48;;;;;;;14.80;5.15;;;;;;;;;;5054429;28;20178;-78
2022/03/19 07:38:14;;;;;;;12.45;5.03;;;;;;;;;;5071765;28;20028;-79
2022/03/19 07:43:25;;;;;;;10.98;4.03;;;;;;;;;;5071296;28;20045;-79
2022/03/19 07:45:52;;;;;;;11.40;5.35;;;;;;;;;;5054373;28;20036;-79
2022/03/19 07:48:18;;;;;;;9.75;4.40;;;;;;;;;;5070650;28;20074;-79
2022/03/19 07:50:44;;;;;;;10.50;4.28;;;;;;;;;;5071589;28;20511;-79
2022/03/19 07:53:10;;;;;;;15.02;4.30;;;;;;;;;;5070582;28;20044;-79
2022/03/19 07:55:36;;;;;;;10.93;3.97;;;;;;;;;;5070000;28;20075;-78
2022/03/19 07:58:03;;;;;;;34.25;10.57;;;;;;;;;;5053974;28;20513;-78
2022/03/19 08:00:29;;;;;;;21.08;6.95;;;;;;;;;;5054224;28;20081;-78
2022/03/19 08:02:55;;;;;;;8.05;4.22;;;;;;;;;;5071863;28;20094;-79
2022/03/19 08:05:21;;;;;;;15.15;6.30;;;;;;;;;;5072243;28;20155;-79
2022/03/19 08:07:47;;;;;;;6.05;3.75;;;;;;;;;;5054375;28;20051;-79
2022/03/19 08:10:13;;;;;;;14.45;3.53;;;;;;;;;;5055230;28;20048;-79
2022/03/19 08:12:40;;;;;;;9.43;3.53;;;;;;;;;;5071820;28;20086;-78
2022/03/19 08:15:07;;;;;;;10.35;3.47;;;;;;;;;;5070418;28;20068;-79
2022/03/19 08:17:41;;;;;;;13.70;4.15;;;;;;;;;;5053647;28;20048;-79
2022/03/19 08:20:07;;;;;;;11.05;4.13;;;;;;;;;;5053720;28;20052;-78
2022/03/19 08:22:34;;;;;;;8.27;3.35;;;;;;;;;;5054016;28;20410;-79
2022/03/19 08:25:01;;;;;;;6.97;3.00;;;;;;;;;;5070670;28;20037;-79
2022/03/19 08:27:27;;;;;;;5.13;2.92;;;;;;;;;;5071107;28;20066;-79
2022/03/19 08:29:54;;;;;;;8.68;3.00;;;;;;;;;;5054822;28;20036;-79
2022/03/19 08:32:23;;;;;;;9.02;3.60;;;;;;;;;;5054911;28;20645;-79
2022/03/19 08:34:50;;;;;;;7.55;3.17;;;;;;;;;;5070955;28;20048;-79
2022/03/19 08:37:16;;;;;;;10.35;4.30;;;;;;;;;;5073010;28;20044;-78
2022/03/19 08:42:27;;;;;;;11.93;3.03;;;;;;;;;;5070154;28;20048;-77
2022/03/19 08:44:55;;;;;;;10.45;3.25;;;;;;;;;;5070215;28;20400;-77
2022/03/19 08:47:21;;;;;;;9.68;2.55;;;;;;;;;;5070022;28;20493;-76
2022/03/19 08:49:47;;;;;;;8.98;2.92;;;;;;;;;;5070018;28;20044;-74
2022/03/19 08:52:13;;;;;;;14.77;5.00;;;;;;;;;;5070391;28;20093;-77
2022/03/19 08:54:39;;;;;;;16.05;5.20;;;;;;;;;;5069817;28;20048;-76
2022/03/19 08:57:05;;;;;;;10.85;2.95;;;;;;;;;;5069883;28;20123;-77
2022/03/19 08:59:31;;;;;;;10.10;3.20;;;;;;;;;;5070337;28;20113;-76
2022/03/19 09:01:58;;;;;;;7.60;2.58;;;;;;;;;;5070690;28;20047;-78
2022/03/19 09:04:24;;;;;;;7.95;2.92;;;;;;;;;;5070128;28;20080;-77
2022/03/19 09:06:50;;;;;;;6.80;2.80;;;;;;;;;;5053916;28;20082;-77
2022/03/19 09:09:17;;;;;;;14.65;4.55;;;;;;;;;;5057337;28;20408;-76
2022/03/19 09:11:44;;;;;;;9.68;3.03;;;;;;;;;;5073998;28;20044;-76
2022/03/19 09:14:10;;;;;;;10.25;2.67;;;;;;;;;;5073983;28;20103;-77
2022/03/19 09:16:36;;;;;;;6.75;2.10;;;;;;;;;;5074043;28;20097;-76
2022/03/19 09:19:03;;;;;;;12.73;2.83;;;;;;;;;;5073828;28;20111;-77
2022/03/19 09:21:29;;;;;;;10.75;2.38;;;;;;;;;;5073352;28;20044;-76
2022/03/19 09:23:58;;;;;;;10.98;2.85;;;;;;;;;;5073322;28;20040;-77
2022/03/19 09:26:24;;;;;;;10.85;3.05;;;;;;;;;;5057091;28;20090;-73
2022/03/19 09:28:51;;;;;;;14.70;3.30;;;;;;;;;;5057186;28;20036;-77
2022/03/19 09:31:17;;;;;;;12.18;4.93;;;;;;;;;;5073795;28;20412;-77
2022/03/19 09:33:46;;;;;;;6.40;2.75;;;;;;;;;;5056580;28;20040;-75
2022/03/19 09:36:13;;;;;;;6.43;2.38;;;;;;;;;;5057805;28;20044;-76
2022/03/19 09:38:42;;;;;;;8.90;2.78;;;;;;;;;;5073473;28;20032;-78
2022/03/19 09:41:08;;;;;;;11.25;2.90;;;;;;;;;;5057238;28;20043;-77
2022/03/19 09:43:34;;;;;;;8.10;2.28;;;;;;;;;;5074261;28;20044;-76
2022/03/19 09:46:02;;;;;;;5.43;2.15;;;;;;;;;;5073382;28;20476;-74
2022/03/19 09:48:28;;;;;;;7.28;2.80;;;;;;;;;;5056876;28;20043;-76
2022/03/19 09:50:55;;;;;;;10.20;2.20;;;;;;;;;;5057296;28;20462;-76
2022/03/19 09:53:23;;;;;;;15.45;3.17;;;;;;;;;;5057254;28;20146;-76
2022/03/19 09:55:50;;;;;;;7.10;2.55;;;;;;;;;;5073374;28;20048;-74
2022/03/19 09:58:16;;;;;;;3.75;2.17;;;;;;;;;;5073630;28;20064;-76
2022/03/19 10:00:43;;;;;;;9.98;3.13;;;;;;;;;;5057599;28;20492;-75
2022/03/19 10:03:10;;;;;;;8.77;2.13;;;;;;;;;;5073325;28;20048;-78
2022/03/19 10:08:41;;;;;;;7.93;3.13;;;;;;;;;;5073944;28;20091;-77
2022/03/19 10:11:11;;;;;;;4.13;1.73;;;;;;;;;;5056693;28;20051;-73
2022/03/19 10:13:42;;;;;;;6.53;1.83;;;;;;;;;;5073297;28;20045;-77
2022/03/19 10:16:08;;;;;;;3.35;1.92;;;;;;;;;;5056254;28;20060;-77
2022/03/19 10:18:35;;;;;;;8.00;3.25;;;;;;;;;;5055827;28;20377;-77
2022/03/19 10:21:13;;;;;;;5.57;2.50;;;;;;;;;;5073160;28;20062;-74
2022/03/19 10:23:39;;;;;;;5.15;2.00;;;;;;;;;;5073409;28;20040;-75
2022/03/19 10:26:06;;;;;;;8.10;2.28;;;;;;;;;;5055823;28;20369;-76
2022/03/19 10:28:34;;;;;;;7.13;2.08;;;;;;;;;;5072902;28;20036;-76
2022/03/19 10:31:00;;;;;;;3.30;1.73;;;;;;;;;;5057215;28;20047;-75
2022/03/19 10:33:27;;;;;;;6.75;1.70;;;;;;;;;;5056873;28;20032;-78
2022/03/19 10:36:05;;;;;;;5.78;2.33;;;;;;;;;;5056061;28;20133;-77
2022/03/19 10:38:39;;;;;;;5.03;2.28;;;;;;;;;;5057212;28;20040;-78
2022/03/19 10:41:05;;;;;;;4.13;2.05;;;;;;;;;;5056118;28;20033;-78
2022/03/19 10:43:33;;;;;;;7.13;1.92;;;;;;;;;;5056375;28;20473;-77
2022/03/19 10:45:59;;;;;;;6.60;2.58;;;;;;;;;;5056740;28;20037;-74
2022/03/19 10:48:27;;;;;;;5.53;1.90;;;;;;;;;;5056818;28;20047;-74
2022/03/19 10:50:53;;;;;;;13.18;4.20;;;;;;;;;;5072387;28;20136;-76
2022/03/19 10:53:20;;;;;;;14.63;6.18;;;;;;;;;;5073296;28;20698;-77
2022/03/19 10:55:46;;;;;;;10.60;3.88;;;;;;;;;;5072003;28;20055;-77
2022/03/19 10:58:12;;;;;;;8.00;4.28;;;;;;;;;;5056387;28;20472;-78
2022/03/19 11:00:38;;;;;;;6.43;2.13;;;;;;;;;;5056864;28;20045;-76
2022/03/19 11:03:11;;;;;;;5.70;2.97;;;;;;;;;;5056382;28;20090;-77
2022/03/19 11:05:38;;;;;;;6.20;2.65;;;;;;;;;;5074001;28;20097;-76
2022/03/19 11:08:07;;;;;;;15.30;7.78;;;;;;;;;;5073212;28;20089;-78
2022/03/19 11:10:35;;;;;;;12.93;4.30;;;;;;;;;;5055579;28;20050;-76
2022/03/19 11:13:01;;;;;;;14.70;7.30;;;;;;;;;;5055853;28;20468;-77
2022/03/19 11:15:30;;;;;;;12.20;5.75;;;;;;;;;;5072175;28;20461;-76
2022/03/19 11:17:58;;;;;;;7.93;2.97;;;;;;;;;;5056180;28;20055;-78
2022/03/19 11:20:24;;;;;;;8.55;2.28;;;;;;;;;;5072533;28;20048;-76
2022/03/19 11:22:53;;;;;;;3.78;1.95;;;;;;;;;;5055337;28;20035;-78
2022/03/19 11:25:30;;;;;;;2.35;1.63;;;;;;;;;;5073357;28;20044;-79
2022/03/19 11:27:59;;;;;;;4.65;1.63;;;;;;;;;;5072540;28;20496;-77
2022/03/19 11:30:30;;;;;;;5.72;1.55;;;;;;;;;;5072200;28;20045;-77
2022/03/19 11:33:05;;;;;;;4.47;1.60;;;;;;;;;;5055890;28;20037;-79
2022/03/19 11:35:31;;;;;;;4.53;1.60;;;;;;;;;;5072574;28;20178;-75
2022/03/19 11:38:00;;;;;;;4.25;2.40;;;;;;;;;;5055533;28;20503;-78
2022/03/19 11:40:35;;;;;;;5.10;1.63;;;;;;;;;;5071690;28;20041;-76
2022/03/19 11:43:02;;;;;;;3.92;1.33;;;;;;;;;;5073068;28;20488;-78
2022/03/19 11:45:37;;;;;;;3.00;1.20;;;;;;;;;;5055792;28;20040;-78
2022/03/19 11:48:04;;;;;;;2.55;1.00;;;;;;;;;;5055293;28;20080;-78
2022/03/19 11:50:31;;;;;;;3.80;1.40;;;;;;;;;;5055985;28;20434;-78
2022/03/19 11:52:57;;;;;;;3.30;1.50;;;;;;;;;;5072035;28;20045;-78
2022/03/19 11:55:24;;;;;;;3.63;1.10;;;;;;;;;;5071411;28;20453;-77
2022/03/19 11:58:00;;;;;;;3.50;1.10;;;;;;;;;;5071807;28;20036;-75
2022/03/19 12:00:27;;;;;;;4.10;1.35;;;;;;;;;;5055251;28;20044;-75
2022/03/19 12:03:03;;;;;;;2.55;1.58;;;;;;;;;;5055652;28;20032;-75
2022/03/19 12:05:30;;;;;;;4.10;1.45;;;;;;;;;;5054488;28;20125;-78
2022/03/19 12:07:59;;;;;;;3.47;1.10;;;;;;;;;;5053734;28;20036;-76
2022/03/19 12:10:25;;;;;;;1.90;1.08;;;;;;;;;;5055624;28;20047;-76
2022/03/19 12:12:51;;;;;;;2.17;0.93;;;;;;;;;;5055202;28;20484;-78
2022/03/19 12:15:32;;;;;;;1.30;1.20;;;;;;;;;;5053679;28;20469;-77
2022/03/19 12:18:17;;;;;;;4.40;1.67;;;;;;;;;;5072376;28;20412;-75
2022/03/19 12:20:43;;;;;;;23.95;7.57;;;;;;;;;;5054982;28;20041;-77
2022/03/19 12:23:12;;;;;;;5.90;2.22;;;;;;;;;;5073468;28;20037;-76
2022/03/19 12:25:42;;;;;;;20.35;6.63;;;;;;;;;;5072940;28;20044;-76
2022/03/19 12:28:08;;;;;;;3.45;1.67;;;;;;;;;;5055230;28;20048;-75
2022/03/19 12:30:36;;;;;;;3.38;1.75;;;;;;;;;;5054698;28;20044;-78
2022/03/19 12:33:02;;;;;;;8.38;3.83;;;;;;;;;;5071752;28;20048;-74
2022/03/19 12:35:38;;;;;;;5.25;2.58;;;;;;;;;;5072597;28;20385;-80
2022/03/19 12:38:04;;;;;;;9.25;4.03;;;;;;;;;;5054892;28;20044;-77
2022/03/19 12:41:23;;;;;;;10.82;4.13;;;;;;;;;;5070760;28;20044;-78
2022/03/19 12:43:18;;;;;;;12.05;3.88;;;;;;;;;;5073923;28;20109;-77
2022/03/19 12:45:46;;;;;;;11.55;4.55;;;;;;;;;;5058574;28;20040;-78
2022/03/19 12:48:16;;;;;;;16.52;5.75;;;;;;;;;;5076298;28;20048;-77
2022/03/19 12:50:49;;;;;;;13.63;5.17;;;;;;;;;;5075159;28;20447;-78
2022/03/19 12:53:16;;;;;;;17.20;5.85;;;;;;;;;;5059167;28;20406;-77
2022/03/19 12:55:42;;;;;;;5.55;2.70;;;;;;;;;;5058106;28;20098;-77
2022/03/19 12:58:08;;;;;;;4.18;1.90;;;;;;;;;;5059122;28;20041;-76
2022/03/19 13:00:34;;;;;;;5.75;2.67;;;;;;;;;;5058209;28;20035;-77
2022/03/19 13:03:00;;;;;;;3.22;1.05;;;;;;;;;;5076355;28;20436;-79
2022/03/19 13:05:26;;;;;;;4.50;1.58;;;;;;;;;;5058936;28;20044;-77
2022/03/19 13:08:01;;;;;;;2.70;1.25;;;;;;;;;;5059758;28;20484;-76
2022/03/19 13:10:27;;;;;;;5.32;2.25;;;;;;;;;;5075333;28;20036;-75
2022/03/19 13:13:06;;;;;;;5.22;1.83;;;;;;;;;;5058040;28;20502;-78
2022/03/19 13:15:32;;;;;;;3.55;1.00;;;;;;;;;;5074566;28;20056;-79
2022/03/19 13:17:58;;;;;;;3.67;1.48;;;;;;;;;;5057542;28;20044;-77
2022/03/19 13:20:25;;;;;;;3.63;1.52;;;;;;;;;;5059125;28;20036;-78
2022/03/19 13:22:58;;;;;;;3.92;1.10;;;;;;;;;;5061154;28;20182;-79
2022/03/19 13:25:25;;;;;;;7.15;1.65;;;;;;;;;;5059262;28;20439;-78
2022/03/19 13:27:53;;;;;;;4.22;1.33;;;;;;;;;;5059992;28;20047;-78
2022/03/19 13:30:19;;;;;;;2.28;1.13;;;;;;;;;;5075267;28;20040;-75
2022/03/19 13:32:45;;;;;;;5.25;1.63;;;;;;;;;;5075554;28;20048;-75
2022/03/19 13:35:11;;;;;;;3.85;1.23;;;;;;;;;;5058602;28;20045;-76
2022/03/19 13:37:38;;;;;;;5.68;1.42;;;;;;;;;;5059057;28;20037;-76
2022/03/19 13:40:06;;;;;;;6.70;1.52;;;;;;;;;;5075398;28;20127;-80
2022/03/19 13:42:36;;;;;;;4.25;1.67;;;;;;;;;;5058984;28;20043;-78
2022/03/19 13:45:07;;;;;;;5.65;1.60;;;;;;;;;;5058790;28;20344;-79
2022/03/19 13:47:42;;;;;;;3.72;2.03;;;;;;;;;;5058559;28;20048;-77
2022/03/19 13:50:09;;;;;;;5.25;1.40;;;;;;;;;;5059216;28;20094;-77
2022/03/19 13:52:40;;;;;;;3.58;1.27;;;;;;;;;;5059586;28;20090;-76
2022/03/19 13:55:12;;;;;;;4.72;1.30;;;;;;;;;;5057862;28;20041;-76
2022/03/19 13:57:40;;;;;;;3.10;1.15;;;;;;;;;;5058149;28;20557;-80
2022/03/19 14:00:31;;;;;;;7.47;1.40;;;;;;;;;;5058609;28;20128;-78
2022/03/19 14:03:13;;;;;;;2.35;1.10;;;;;;;;;;5058410;28;20063;-77
2022/03/19 14:05:40;;;;;;;4.75;1.60;;;;;;;;;;5056705;28;20430;-75
2022/03/19 14:08:07;;;;;;;7.80;1.75;;;;;;;;;;5058638;28;20052;-77
2022/03/19 14:10:41;;;;;;;3.00;1.55;;;;;;;;;;5074448;28;20082;-77
2022/03/19 14:13:10;;;;;;;4.32;1.50;;;;;;;;;;5074360;28;20450;-74
2022/03/19 14:15:42;;;;;;;3.70;0.90;;;;;;;;;;5058163;28;20060;-77
2022/03/19 14:18:10;;;;;;;6.05;1.30;;;;;;;;;;5057706;28;20049;-77
2022/03/19 14:20:36;;;;;;;3.05;1.27;;;;;;;;;;5073654;28;20436;-76
2022/03/19 14:23:03;;;;;;;4.18;1.20;;;;;;;;;;5057826;28;20044;-73
2022/03/19 14:25:29;;;;;;;3.50;1.27;;;;;;;;;;5058083;28;20510;-77
2022/03/19 14:28:05;;;;;;;3.58;1.00;;;;;;;;;;5058737;28;20408;-79
2022/03/19 14:30:32;;;;;;;3.55;1.27;;;;;;;;;;5076957;28;20044;-79
2022/03/19 14:33:00;;;;;;;4.57;1.55;;;;;;;;;;5075415;28;20463;-81
2022/03/19 14:35:42;;;;;;;2.33;1.02;;;;;;;;;;5059250;28;20517;-79
2022/03/19 14:38:08;;;;;;;4.25;1.77;;;;;;;;;;5058689;28;20134;-80
2022/03/19 14:40:34;;;;;;;1.95;1.02;;;;;;;;;;5059788;28;20123;-81
2022/03/19 14:43:03;;;;;;;4.50;1.55;;;;;;;;;;5075668;28;20082;-82
2022/03/19 14:45:30;;;;;;;3.65;1.27;;;;;;;;;;5076010;28;20052;-77
2022/03/19 14:47:56;;;;;;;4.55;1.35;;;;;;;;;;5058542;28;20048;-80
2022/03/19 14:50:22;;;;;;;3.33;1.08;;;;;;;;;;5057307;28;20048;-76